sensor_id;sensor_type;location;lat;lon;timestamp;pressure;altitude;pressure_sealevel;temperature;humidity
73674;BME280;61975;48.660;10.164;2023-05-14T00:01:03;95566.13;;;12.21;100.00
73674;BME280;61975;48.660;10.164;2023-05-14T00:03:28;95565.34;;;12.20;100.00
73674;BME280;61975;48.660;10.164;2023-05-14T00:05:53;95558.19;;;12.19;100.00
73674;BME280;61975;48.660;10.164;2023-05-14T00:08:19;95562.16;;;12.18;100.00
73674;BME280;61975;48.660;10.164;2023-05-14T00:10:44;95557.78;;;12.17;100.00
73674;BME280;61975;48.660;10.164;2023-05-14T00:13:10;95551.03;;;12.18;100.00
73674;BME280;61975;48.660;10.164;2023-05-14T00:15:35;95563.75;;;12.19;100.00
73674;BME280;61975;48.660;10.164;2023-05-14T00:18:00;95544.66;;;12.18;100.00
73674;BME280;61975;48.660;10.164;2023-05-14T00:20:26;95547.06;;;12.16;100.00
73674;BME280;61975;48.660;10.164;2023-05-14T00:22:51;95538.28;;;12.14;100.00
73674;BME280;61975;48.660;10.164;2023-05-14T00:25:17;95539.88;;;12.15;100.00
73674;BME280;61975;48.660;10.164;2023-05-14T00:27:42;95536.31;;;12.11;100.00
73674;BME280;61975;48.660;10.164;2023-05-14T00:30:08;95536.69;;;12.09;100.00
73674;BME280;61975;48.660;10.164;2023-05-14T00:32:33;95536.31;;;12.07;100.00
73674;BME280;61975;48.660;10.164;2023-05-14T00:34:59;95535.50;;;12.07;100.00
73674;BME280;61975;48.660;10.164;2023-05-14T00:37:24;95536.28;;;12.04;100.00
73674;BME280;61975;48.660;10.164;2023-05-14T00:39:50;95538.28;;;12.00;100.00
73674;BME280;61975;48.660;10.164;2023-05-14T00:42:15;95536.28;;;12.04;100.00
73674;BME280;61975;48.660;10.164;2023-05-14T00:44:41;95540.69;;;12.05;100.00
73674;BME280;61975;48.660;10.164;2023-05-14T00:47:06;95539.50;;;12.06;100.00
73674;BME280;61975;48.660;10.164;2023-05-14T00:49:32;95539.06;;;12.04;100.00
73674;BME280;61975;48.660;10.164;2023-05-14T00:51:58;95539.50;;;12.06;100.00
73674;BME280;61975;48.660;10.164;2023-05-14T00:54:25;95535.09;;;12.01;100.00
73674;BME280;61975;48.660;10.164;2023-05-14T00:56:51;95536.69;;;12.02;100.00
73674;BME280;61975;48.660;10.164;2023-05-14T00:59:17;95532.34;;;11.98;100.00
73674;BME280;61975;48.660;10.164;2023-05-14T01:01:42;95531.13;;;11.99;100.00
73674;BME280;61975;48.660;10.164;2023-05-14T01:04:09;95530.34;;;12.02;100.00
73674;BME280;61975;48.660;10.164;2023-05-14T01:09:31;95531.94;;;11.99;100.00
73674;BME280;61975;48.660;10.164;2023-05-14T01:12:28;95529.94;;;12.00;100.00
73674;BME280;61975;48.660;10.164;2023-05-14T01:15:09;95530.75;;;12.00;100.00
73674;BME280;61975;48.660;10.164;2023-05-14T01:17:41;95536.31;;;12.00;100.00
73674;BME280;61975;48.660;10.164;2023-05-14T01:20:07;95535.50;;;12.00;100.00
73674;BME280;61975;48.660;10.164;2023-05-14T01:22:33;95529.94;;;12.00;100.00
73674;BME280;61975;48.660;10.164;2023-05-14T01:24:59;95535.91;;;12.02;100.00
73674;BME280;61975;48.660;10.164;2023-05-14T01:30:35;95526.38;;;11.99;100.00
73674;BME280;61975;48.660;10.164;2023-05-14T01:33:04;95527.53;;;11.98;100.00
73674;BME280;61975;48.660;10.164;2023-05-14T01:35:30;95518.41;;;11.98;100.00
73674;BME280;61975;48.660;10.164;2023-05-14T01:37:59;95529.56;;;11.98;100.00
73674;BME280;61975;48.660;10.164;2023-05-14T01:40:26;95521.19;;;11.98;100.00
73674;BME280;61975;48.660;10.164;2023-05-14T01:42:52;95521.59;;;11.96;100.00
73674;BME280;61975;48.660;10.164;2023-05-14T01:45:21;95517.59;;;11.94;100.00
73674;BME280;61975;48.660;10.164;2023-05-14T01:47:46;95521.56;;;11.93;100.00
73674;BME280;61975;48.660;10.164;2023-05-14T01:50:12;95521.97;;;11.91;100.00
73674;BME280;61975;48.660;10.164;2023-05-14T01:52:38;95515.22;;;11.89;100.00
73674;BME280;61975;48.660;10.164;2023-05-14T01:55:04;95521.16;;;11.87;100.00
73674;BME280;61975;48.660;10.164;2023-05-14T01:57:30;95524.34;;;11.86;100.00
73674;BME280;61975;48.660;10.164;2023-05-14T01:59:55;95525.53;;;11.85;100.00
73674;BME280;61975;48.660;10.164;2023-05-14T02:02:21;95520.75;;;11.82;100.00
73674;BME280;61975;48.660;10.164;2023-05-14T02:04:46;95527.53;;;11.81;100.00
73674;BME280;61975;48.660;10.164;2023-05-14T02:07:12;95517.97;;;11.82;100.00
73674;BME280;61975;48.660;10.164;2023-05-14T02:09:37;95524.34;;;11.82;100.00
73674;BME280;61975;48.660;10.164;2023-05-14T02:12:04;95513.63;;;11.81;100.00
73674;BME280;61975;48.660;10.164;2023-05-14T02:14:29;95515.19;;;11.82;100.00
73674;BME280;61975;48.660;10.164;2023-05-14T02:16:55;95525.13;;;11.83;100.00
73674;BME280;61975;48.660;10.164;2023-05-14T02:19:21;95518.78;;;11.82;100.00
73674;BME280;61975;48.660;10.164;2023-05-14T02:21:46;95515.19;;;11.82;100.00
73674;BME280;61975;48.660;10.164;2023-05-14T02:24:12;95516.41;;;11.81;100.00
73674;BME280;61975;48.660;10.164;2023-05-14T02:26:37;95515.59;;;11.80;100.00
73674;BME280;61975;48.660;10.164;2023-05-14T02:29:03;95519.19;;;11.81;100.00
73674;BME280;61975;48.660;10.164;2023-05-14T02:31:28;95512.81;;;11.77;100.00
73674;BME280;61975;48.660;10.164;2023-05-14T02:33:53;95516.41;;;11.81;100.00
73674;BME280;61975;48.660;10.164;2023-05-14T02:36:19;95517.56;;;11.80;100.00
73674;BME280;61975;48.660;10.164;2023-05-14T02:38:44;95517.56;;;11.80;100.00
73674;BME280;61975;48.660;10.164;2023-05-14T02:41:10;95518.38;;;11.77;100.00
73674;BME280;61975;48.660;10.164;2023-05-14T02:43:35;95510.44;;;11.75;100.00
73674;BME280;61975;48.660;10.164;2023-05-14T02:46:00;95515.97;;;11.72;100.00
73674;BME280;61975;48.660;10.164;2023-05-14T02:48:26;95514.78;;;11.69;100.00
73674;BME280;61975;48.660;10.164;2023-05-14T02:50:51;95513.59;;;11.74;100.00
73674;BME280;61975;48.660;10.164;2023-05-14T02:53:17;95510.44;;;11.75;100.00
73674;BME280;61975;48.660;10.164;2023-05-14T02:55:42;95513.22;;;11.75;100.00
73674;BME280;61975;48.660;10.164;2023-05-14T02:58:07;95511.19;;;11.76;100.00
73674;BME280;61975;48.660;10.164;2023-05-14T03:00:33;95516.75;;;11.76;100.00
73674;BME280;61975;48.660;10.164;2023-05-14T03:02:58;95514.00;;;11.76;100.00
73674;BME280;61975;48.660;10.164;2023-05-14T03:05:24;95514.41;;;11.78;100.00
73674;BME280;61975;48.660;10.164;2023-05-14T03:07:52;95508.03;;;11.77;100.00
73674;BME280;61975;48.660;10.164;2023-05-14T03:10:18;95509.63;;;11.75;100.00
73674;BME280;61975;48.660;10.164;2023-05-14T03:12:44;95504.03;;;11.71;100.00
73674;BME280;61975;48.660;10.164;2023-05-14T03:15:10;95508.03;;;11.74;100.00
73674;BME280;61975;48.660;10.164;2023-05-14T03:17:35;95501.28;;;11.75;100.00
73674;BME280;61975;48.660;10.164;2023-05-14T03:20:01;95502.47;;;11.67;100.00
73674;BME280;61975;48.660;10.164;2023-05-14T03:22:26;95497.56;;;11.39;100.00
73674;BME280;61975;48.660;10.164;2023-05-14T03:24:52;95499.63;;;11.53;100.00
73674;BME280;61975;48.660;10.164;2023-05-14T03:27:17;95503.19;;;11.57;100.00
73674;BME280;61975;48.660;10.164;2023-05-14T03:29:43;95496.03;;;11.56;100.00
73674;BME280;61975;48.660;10.164;2023-05-14T03:32:08;95496.84;;;11.53;100.00
73674;BME280;61975;48.660;10.164;2023-05-14T03:34:34;95496.41;;;11.51;100.00
73674;BME280;61975;48.660;10.164;2023-05-14T03:37:00;95499.19;;;11.51;100.00
73674;BME280;61975;48.660;10.164;2023-05-14T03:39:25;95499.59;;;11.49;100.00
73674;BME280;61975;48.660;10.164;2023-05-14T03:41:51;95492.06;;;11.50;100.00
73674;BME280;61975;48.660;10.164;2023-05-14T03:44:16;95494.41;;;11.48;100.00
73674;BME280;61975;48.660;10.164;2023-05-14T03:46:41;95496.41;;;11.51;100.00
73674;BME280;61975;48.660;10.164;2023-05-14T03:49:07;95490.44;;;11.49;100.00
73674;BME280;61975;48.660;10.164;2023-05-14T03:51:33;95500.78;;;11.52;100.00
73674;BME280;61975;48.660;10.164;2023-05-14T03:53:58;95497.22;;;11.55;100.00
73674;BME280;61975;48.660;10.164;2023-05-14T03:56:24;95504.75;;;11.51;100.00
73674;BME280;61975;48.660;10.164;2023-05-14T03:58:50;95492.84;;;11.54;100.00
73674;BME280;61975;48.660;10.164;2023-05-14T04:01:16;95500.75;;;11.41;100.00
73674;BME280;61975;48.660;10.164;2023-05-14T04:03:41;95499.16;;;11.47;100.00
73674;BME280;61975;48.660;10.164;2023-05-14T04:06:06;95496.84;;;11.53;100.00
73674;BME280;61975;48.660;10.164;2023-05-14T04:08:32;95497.63;;;11.50;100.00
73674;BME280;61975;48.660;10.164;2023-05-14T04:10:57;95495.22;;;11.52;100.00
73674;BME280;61975;48.660;10.164;2023-05-14T04:13:23;95493.25;;;11.52;100.00
73674;BME280;61975;48.660;10.164;2023-05-14T04:15:48;95501.56;;;11.49;100.00
73674;BME280;61975;48.660;10.164;2023-05-14T04:18:13;95493.63;;;11.51;100.00
73674;BME280;61975;48.660;10.164;2023-05-14T04:20:39;95490.84;;;11.51;100.00
73674;BME280;61975;48.660;10.164;2023-05-14T04:23:04;95487.28;;;11.50;100.00
73674;BME280;61975;48.660;10.164;2023-05-14T04:25:30;95484.06;;;11.45;100.00
73674;BME280;61975;48.660;10.164;2023-05-14T04:27:56;95489.28;;;11.50;100.00
73674;BME280;61975;48.660;10.164;2023-05-14T04:30:21;95490.06;;;11.50;100.00
73674;BME280;61975;48.660;10.164;2023-05-14T04:32:46;95494.06;;;11.53;100.00
73674;BME280;61975;48.660;10.164;2023-05-14T04:35:12;95491.25;;;11.49;100.00
73674;BME280;61975;48.660;10.164;2023-05-14T04:37:38;95493.25;;;11.52;100.00
73674;BME280;61975;48.660;10.164;2023-05-14T04:40:04;95487.28;;;11.54;100.00
73674;BME280;61975;48.660;10.164;2023-05-14T04:42:30;95486.50;;;11.57;100.00
73674;BME280;61975;48.660;10.164;2023-05-14T04:44:56;95473.78;;;11.56;100.00
73674;BME280;61975;48.660;10.164;2023-05-14T04:47:22;95485.31;;;11.58;100.00
73674;BME280;61975;48.660;10.164;2023-05-14T04:49:47;95478.56;;;11.59;100.00
73674;BME280;61975;48.660;10.164;2023-05-14T04:52:12;95493.28;;;11.63;100.00
73674;BME280;61975;48.660;10.164;2023-05-14T04:54:38;95480.59;;;11.65;100.00
73674;BME280;61975;48.660;10.164;2023-05-14T04:57:03;95489.72;;;11.62;100.00
73674;BME280;61975;48.660;10.164;2023-05-14T04:59:30;95485.38;;;11.65;100.00
73674;BME280;61975;48.660;10.164;2023-05-14T05:01:55;95480.59;;;11.62;100.00
73674;BME280;61975;48.660;10.164;2023-05-14T05:04:20;95476.19;;;11.61;100.00
73674;BME280;61975;48.660;10.164;2023-05-14T05:06:48;95484.50;;;11.57;100.00
73674;BME280;61975;48.660;10.164;2023-05-14T05:09:14;95482.19;;;11.66;100.00
73674;BME280;61975;48.660;10.164;2023-05-14T05:11:39;95488.56;;;11.67;100.00
73674;BME280;61975;48.660;10.164;2023-05-14T05:14:04;95488.94;;;11.65;100.00
73674;BME280;61975;48.660;10.164;2023-05-14T05:16:30;95476.22;;;11.64;100.00
73674;BME280;61975;48.660;10.164;2023-05-14T05:18:55;95489.72;;;11.66;100.00
73674;BME280;61975;48.660;10.164;2023-05-14T05:21:21;95480.59;;;11.62;100.00
73674;BME280;61975;48.660;10.164;2023-05-14T05:23:46;95490.53;;;11.66;100.00
73674;BME280;61975;48.660;10.164;2023-05-14T05:26:11;95488.56;;;11.74;100.00
73674;BME280;61975;48.660;10.164;2023-05-14T05:28:37;95477.84;;;11.72;100.00
73674;BME280;61975;48.660;10.164;2023-05-14T05:31:02;95485.38;;;11.68;100.00
73674;BME280;61975;48.660;10.164;2023-05-14T05:33:28;95485.00;;;11.73;100.00
73674;BME280;61975;48.660;10.164;2023-05-14T05:35:53;95478.63;;;11.80;100.00
73674;BME280;61975;48.660;10.164;2023-05-14T05:38:19;95473.06;;;11.76;100.00
73674;BME280;61975;48.660;10.164;2023-05-14T05:40:44;95473.91;;;11.84;100.00
73674;BME280;61975;48.660;10.164;2023-05-14T05:43:09;95474.28;;;11.82;100.00
73674;BME280;61975;48.660;10.164;2023-05-14T05:45:35;95483.00;;;11.74;100.00
73674;BME280;61975;48.660;10.164;2023-05-14T05:48:00;95479.41;;;11.70;100.00
73674;BME280;61975;48.660;10.164;2023-05-14T05:50:26;95487.38;;;11.75;100.00
73674;BME280;61975;48.660;10.164;2023-05-14T05:52:51;95483.41;;;11.83;100.00
73674;BME280;61975;48.660;10.164;2023-05-14T05:55:17;95483.41;;;11.83;100.00
73674;BME280;61975;48.660;10.164;2023-05-14T05:57:43;95493.75;;;11.89;100.00
73674;BME280;61975;48.660;10.164;2023-05-14T06:00:09;95494.56;;;11.93;100.00
73674;BME280;61975;48.660;10.164;2023-05-14T06:02:38;95487.41;;;11.96;100.00
73674;BME280;61975;48.660;10.164;2023-05-14T06:05:04;95483.44;;;12.04;100.00
73674;BME280;61975;48.660;10.164;2023-05-14T06:07:30;95488.22;;;12.10;100.00
73674;BME280;61975;48.660;10.164;2023-05-14T06:09:55;95483.44;;;12.21;100.00
73674;BME280;61975;48.660;10.164;2023-05-14T06:12:20;95489.00;;;12.32;100.00
73674;BME280;61975;48.660;10.164;2023-05-14T06:14:46;95489.81;;;12.39;100.00
73674;BME280;61975;48.660;10.164;2023-05-14T06:17:12;95489.41;;;12.48;100.00
73674;BME280;61975;48.660;10.164;2023-05-14T06:19:37;95490.97;;;12.56;100.00
73674;BME280;61975;48.660;10.164;2023-05-14T06:22:03;95497.34;;;12.67;100.00
73674;BME280;61975;48.660;10.164;2023-05-14T06:24:28;95494.16;;;12.72;100.00
73674;BME280;61975;48.660;10.164;2023-05-14T06:26:53;95495.72;;;12.80;100.00
73674;BME280;61975;48.660;10.164;2023-05-14T06:29:19;95490.94;;;12.87;100.00
73674;BME280;61975;48.660;10.164;2023-05-14T06:31:44;95496.47;;;12.98;100.00
73674;BME280;61975;48.660;10.164;2023-05-14T06:34:10;95504.03;;;13.08;100.00
73674;BME280;61975;48.660;10.164;2023-05-14T06:36:36;95495.28;;;13.13;100.00
73674;BME280;61975;48.660;10.164;2023-05-14T06:39:01;95504.00;;;13.15;100.00
73674;BME280;61975;48.660;10.164;2023-05-14T06:41:27;95492.84;;;13.22;100.00
73674;BME280;61975;48.660;10.164;2023-05-14T06:43:53;95492.44;;;13.27;100.00
73674;BME280;61975;48.660;10.164;2023-05-14T06:46:19;95492.81;;;13.29;100.00
73674;BME280;61975;48.660;10.164;2023-05-14T06:48:45;95489.63;;;13.34;100.00
73674;BME280;61975;48.660;10.164;2023-05-14T06:51:10;95485.63;;;13.35;100.00
73674;BME280;61975;48.660;10.164;2023-05-14T06:53:37;95486.81;;;13.41;100.00
73674;BME280;61975;48.660;10.164;2023-05-14T06:56:03;95491.53;;;13.51;100.00
73674;BME280;61975;48.660;10.164;2023-05-14T06:58:29;95495.50;;;13.57;100.00
73674;BME280;61975;48.660;10.164;2023-05-14T07:00:54;95493.94;;;13.52;100.00
73674;BME280;61975;48.660;10.164;2023-05-14T07:03:20;95492.31;;;13.55;100.00
73674;BME280;61975;48.660;10.164;2023-05-14T07:05:46;95494.66;;;13.60;100.00
73674;BME280;61975;48.660;10.164;2023-05-14T07:08:12;95500.66;;;13.58;100.00
73674;BME280;61975;48.660;10.164;2023-05-14T07:10:37;95489.09;;;13.60;100.00
73674;BME280;61975;48.660;10.164;2023-05-14T07:13:04;95495.53;;;13.46;100.00
73674;BME280;61975;48.660;10.164;2023-05-14T07:15:29;95489.50;;;13.58;100.00
73674;BME280;61975;48.660;10.164;2023-05-14T07:17:55;95493.84;;;13.63;100.00
73674;BME280;61975;48.660;10.164;2023-05-14T07:20:20;95497.81;;;13.65;100.00
73674;BME280;61975;48.660;10.164;2023-05-14T07:22:48;95497.81;;;13.69;100.00
73674;BME280;61975;48.660;10.164;2023-05-14T07:25:13;95495.44;;;13.71;100.00
73674;BME280;61975;48.660;10.164;2023-05-14T07:27:39;95493.78;;;13.77;100.00
73674;BME280;61975;48.660;10.164;2023-05-14T07:30:06;95491.41;;;13.79;99.92
73674;BME280;61975;48.660;10.164;2023-05-14T07:32:31;95498.13;;;13.85;100.00
73674;BME280;61975;48.660;10.164;2023-05-14T07:34:57;95496.50;;;13.91;100.00
73674;BME280;61975;48.660;10.164;2023-05-14T07:37:22;95488.47;;;13.97;99.80
73674;BME280;61975;48.660;10.164;2023-05-14T07:39:52;95493.28;;;13.96;98.63
73674;BME280;61975;48.660;10.164;2023-05-14T07:42:18;95490.81;;;14.05;99.56
73674;BME280;61975;48.660;10.164;2023-05-14T07:44:43;95492.78;;;14.08;100.00
73674;BME280;61975;48.660;10.164;2023-05-14T07:47:09;95493.19;;;14.10;99.44
73674;BME280;61975;48.660;10.164;2023-05-14T07:49:35;95496.34;;;14.12;98.83
73674;BME280;61975;48.660;10.164;2023-05-14T07:52:00;95487.97;;;14.16;97.85
73674;BME280;61975;48.660;10.164;2023-05-14T07:54:26;95499.97;;;14.09;93.60
73674;BME280;61975;48.660;10.164;2023-05-14T07:56:51;95498.78;;;14.07;95.70
73674;BME280;61975;48.660;10.164;2023-05-14T07:59:17;95492.84;;;14.05;94.75
73674;BME280;61975;48.660;10.164;2023-05-14T08:01:42;95496.41;;;14.05;94.36
73674;BME280;61975;48.660;10.164;2023-05-14T08:04:08;95496.94;;;13.86;95.00
73674;BME280;61975;48.660;10.164;2023-05-14T08:06:36;95497.34;;;13.84;95.15
73674;BME280;61975;48.660;10.164;2023-05-14T08:09:01;95490.13;;;13.91;95.06
73674;BME280;61975;48.660;10.164;2023-05-14T08:11:29;95491.66;;;13.99;96.20
73674;BME280;61975;48.660;10.164;2023-05-14T08:13:55;95498.00;;;14.06;95.89
73674;BME280;61975;48.660;10.164;2023-05-14T08:16:21;95494.75;;;14.11;95.96
73674;BME280;61975;48.660;10.164;2023-05-14T08:18:46;95492.75;;;14.15;95.36
73674;BME280;61975;48.660;10.164;2023-05-14T08:21:11;95481.56;;;14.22;92.85
73674;BME280;61975;48.660;10.164;2023-05-14T08:23:37;95484.69;;;14.31;94.10
73674;BME280;61975;48.660;10.164;2023-05-14T08:26:02;95479.81;;;14.42;93.07
73674;BME280;61975;48.660;10.164;2023-05-14T08:28:27;95483.69;;;14.55;91.49
73674;BME280;61975;48.660;10.164;2023-05-14T08:30:53;95478.03;;;14.62;89.56
73674;BME280;61975;48.660;10.164;2023-05-14T08:33:19;95477.97;;;14.69;89.58
73674;BME280;61975;48.660;10.164;2023-05-14T08:35:44;95463.09;;;14.79;86.23
73674;BME280;61975;48.660;10.164;2023-05-14T08:38:09;95470.19;;;14.87;86.07
73674;BME280;61975;48.660;10.164;2023-05-14T08:40:35;95468.56;;;14.90;87.08
73674;BME280;61975;48.660;10.164;2023-05-14T08:43:01;95475.84;;;14.84;84.67
73674;BME280;61975;48.660;10.164;2023-05-14T08:45:30;95472.16;;;14.90;86.10
73674;BME280;61975;48.660;10.164;2023-05-14T08:47:59;95476.53;;;14.91;86.02
73674;BME280;61975;48.660;10.164;2023-05-14T08:50:29;95468.63;;;14.86;86.12
73674;BME280;61975;48.660;10.164;2023-05-14T08:52:55;95466.97;;;14.92;88.05
73674;BME280;61975;48.660;10.164;2023-05-14T08:55:21;95471.69;;;14.95;87.22
73674;BME280;61975;48.660;10.164;2023-05-14T08:57:46;95474.13;;;14.93;86.69
73674;BME280;61975;48.660;10.164;2023-05-14T09:00:12;95466.66;;;14.83;86.07
73674;BME280;61975;48.660;10.164;2023-05-14T09:02:40;95472.91;;;14.94;85.89
73674;BME280;61975;48.660;10.164;2023-05-14T09:05:07;95466.84;;;15.03;87.32
73674;BME280;61975;48.660;10.164;2023-05-14T09:07:36;95464.38;;;15.08;86.92
73674;BME280;61975;48.660;10.164;2023-05-14T09:10:02;95461.16;;;15.13;86.95
73674;BME280;61975;48.660;10.164;2023-05-14T09:12:28;95461.59;;;15.08;83.46
73674;BME280;61975;48.660;10.164;2023-05-14T09:14:53;95441.16;;;15.15;82.92
73674;BME280;61975;48.660;10.164;2023-05-14T09:17:19;95463.81;;;15.24;82.77
73674;BME280;61975;48.660;10.164;2023-05-14T09:19:45;95456.97;;;15.28;82.68
73674;BME280;61975;48.660;10.164;2023-05-14T09:22:14;95447.75;;;15.31;82.55
73674;BME280;61975;48.660;10.164;2023-05-14T09:24:40;95454.84;;;15.39;83.36
73674;BME280;61975;48.660;10.164;2023-05-14T09:27:07;95448.16;;;15.63;83.17
73674;BME280;61975;48.660;10.164;2023-05-14T09:29:32;95446.66;;;15.55;81.83
73674;BME280;61975;48.660;10.164;2023-05-14T09:32:01;95440.44;;;15.71;82.46
73674;BME280;61975;48.660;10.164;2023-05-14T09:34:33;95437.03;;;15.86;79.71
73674;BME280;61975;48.660;10.164;2023-05-14T09:37:06;95439.13;;;16.05;77.65
73674;BME280;61975;48.660;10.164;2023-05-14T09:39:34;95427.03;;;16.12;73.47
73674;BME280;61975;48.660;10.164;2023-05-14T09:42:00;95431.34;;;16.16;74.36
73674;BME280;61975;48.660;10.164;2023-05-14T09:44:29;95421.38;;;16.15;72.09
73674;BME280;61975;48.660;10.164;2023-05-14T09:46:55;95420.38;;;16.29;73.60
73674;BME280;61975;48.660;10.164;2023-05-14T09:49:22;95414.69;;;16.32;71.36
73674;BME280;61975;48.660;10.164;2023-05-14T09:51:48;95412.19;;;16.38;71.33
73674;BME280;61975;48.660;10.164;2023-05-14T09:54:13;95412.63;;;16.36;70.40
73674;BME280;61975;48.660;10.164;2023-05-14T09:56:39;95418.28;;;16.33;71.05
73674;BME280;61975;48.660;10.164;2023-05-14T09:59:05;95416.81;;;16.52;70.37
73674;BME280;61975;48.660;10.164;2023-05-14T10:01:31;95414.06;;;16.71;69.76
73674;BME280;61975;48.660;10.164;2023-05-14T10:04:02;95407.25;;;16.92;67.71
73674;BME280;61975;48.660;10.164;2023-05-14T10:06:35;95405.81;;;17.03;66.25
73674;BME280;61975;48.660;10.164;2023-05-14T10:09:03;95397.19;;;17.14;65.38
73674;BME280;61975;48.660;10.164;2023-05-14T10:11:33;95399.34;;;17.26;67.13
73674;BME280;61975;48.660;10.164;2023-05-14T10:14:14;95399.13;;;17.36;65.41
73674;BME280;61975;48.660;10.164;2023-05-14T10:16:46;95398.50;;;17.29;65.23
73674;BME280;61975;48.660;10.164;2023-05-14T10:19:16;95400.06;;;17.10;66.69
73674;BME280;61975;48.660;10.164;2023-05-14T10:21:46;95401.34;;;16.86;65.40
73674;BME280;61975;48.660;10.164;2023-05-14T10:24:13;95396.56;;;16.64;66.20
73674;BME280;61975;48.660;10.164;2023-05-14T10:26:40;95402.69;;;16.59;65.94
73674;BME280;61975;48.660;10.164;2023-05-14T10:29:06;95394.88;;;16.70;66.56
73674;BME280;61975;48.660;10.164;2023-05-14T10:34:30;95397.97;;;16.95;66.28
73674;BME280;61975;48.660;10.164;2023-05-14T10:37:10;95387.84;;;17.01;65.02
73674;BME280;61975;48.660;10.164;2023-05-14T10:42:05;95385.66;;;17.28;66.41
73674;BME280;61975;48.660;10.164;2023-05-14T10:44:31;95385.25;;;17.29;64.70
73674;BME280;61975;48.660;10.164;2023-05-14T10:46:59;95378.34;;;17.34;64.74
73674;BME280;61975;48.660;10.164;2023-05-14T10:49:26;95376.69;;;17.36;63.68
73674;BME280;61975;48.660;10.164;2023-05-14T10:51:52;95366.34;;;17.33;64.55
73674;BME280;61975;48.660;10.164;2023-05-14T10:54:17;95370.00;;;17.30;62.33
73674;BME280;61975;48.660;10.164;2023-05-14T10:56:45;95362.50;;;17.24;61.72
73674;BME280;61975;48.660;10.164;2023-05-14T10:59:10;95363.97;;;17.32;62.59
73674;BME280;61975;48.660;10.164;2023-05-14T11:01:39;95357.72;;;17.44;61.81
73674;BME280;61975;48.660;10.164;2023-05-14T11:04:05;95363.88;;;17.55;62.36
73674;BME280;61975;48.660;10.164;2023-05-14T11:06:31;95355.69;;;17.80;61.04
73674;BME280;61975;48.660;10.164;2023-05-14T11:08:59;95358.56;;;17.76;61.37
73674;BME280;61975;48.660;10.164;2023-05-14T11:11:25;95363.34;;;17.95;60.32
73674;BME280;61975;48.660;10.164;2023-05-14T11:13:52;95353.25;;;18.14;59.56
73674;BME280;61975;48.660;10.164;2023-05-14T11:16:20;95350.34;;;18.33;59.46
73674;BME280;61975;48.660;10.164;2023-05-14T11:18:52;95343.75;;;18.56;59.49
73674;BME280;61975;48.660;10.164;2023-05-14T11:21:17;95357.13;;;18.52;58.13
73674;BME280;61975;48.660;10.164;2023-05-14T11:23:45;95344.72;;;18.65;58.29
73674;BME280;61975;48.660;10.164;2023-05-14T11:26:11;95351.84;;;18.70;57.38
73674;BME280;61975;48.660;10.164;2023-05-14T11:28:37;95341.47;;;18.67;56.34
73674;BME280;61975;48.660;10.164;2023-05-14T11:31:03;95346.41;;;18.63;56.56
73674;BME280;61975;48.660;10.164;2023-05-14T11:33:30;95345.00;;;18.55;56.42
73674;BME280;61975;48.660;10.164;2023-05-14T11:35:55;95338.69;;;18.51;55.90
73674;BME280;61975;48.660;10.164;2023-05-14T11:38:21;95348.00;;;18.48;55.74
73674;BME280;61975;48.660;10.164;2023-05-14T11:40:58;95340.25;;;18.52;55.71
73674;BME280;61975;48.660;10.164;2023-05-14T11:43:24;95341.59;;;18.47;54.40
73674;BME280;61975;48.660;10.164;2023-05-14T11:45:53;95343.88;;;18.36;54.56
73674;BME280;61975;48.660;10.164;2023-05-14T11:48:19;95337.75;;;18.41;54.25
73674;BME280;61975;48.660;10.164;2023-05-14T11:50:50;95325.50;;;18.48;54.92
73674;BME280;61975;48.660;10.164;2023-05-14T11:53:27;95327.25;;;18.58;54.61
73674;BME280;61975;48.660;10.164;2023-05-14T11:55:53;95339.19;;;18.62;55.12
73674;BME280;61975;48.660;10.164;2023-05-14T11:58:19;95323.00;;;18.66;55.06
73674;BME280;61975;48.660;10.164;2023-05-14T12:00:45;95330.75;;;18.62;55.11
73674;BME280;61975;48.660;10.164;2023-05-14T12:03:14;95325.13;;;18.62;54.51
73674;BME280;61975;48.660;10.164;2023-05-14T12:05:39;95323.63;;;18.57;55.64
73674;BME280;61975;48.660;10.164;2023-05-14T12:08:21;95328.50;;;18.41;56.57
73674;BME280;61975;48.660;10.164;2023-05-14T12:10:47;95317.38;;;18.37;56.11
73674;BME280;61975;48.660;10.164;2023-05-14T12:13:14;95323.75;;;18.38;56.65
73674;BME280;61975;48.660;10.164;2023-05-14T12:15:44;95319.00;;;18.35;56.21
73674;BME280;61975;48.660;10.164;2023-05-14T12:18:09;95320.25;;;18.18;55.35
73674;BME280;61975;48.660;10.164;2023-05-14T12:20:35;95317.34;;;18.05;55.33
73674;BME280;61975;48.660;10.164;2023-05-14T12:23:00;95322.38;;;17.98;56.46
73674;BME280;61975;48.660;10.164;2023-05-14T12:25:26;95311.38;;;18.03;57.64
73674;BME280;61975;48.660;10.164;2023-05-14T12:27:53;95300.78;;;17.95;56.77
73674;BME280;61975;48.660;10.164;2023-05-14T12:30:19;95304.34;;;17.79;57.85
73674;BME280;61975;48.660;10.164;2023-05-14T12:32:44;95305.31;;;17.89;57.59
73674;BME280;61975;48.660;10.164;2023-05-14T12:35:10;95299.63;;;17.76;57.53
73674;BME280;61975;48.660;10.164;2023-05-14T12:37:38;95301.13;;;17.81;57.66
73674;BME280;61975;48.660;10.164;2023-05-14T12:40:04;95287.50;;;17.79;56.53
73674;BME280;61975;48.660;10.164;2023-05-14T12:42:39;95296.38;;;17.78;56.99
73674;BME280;61975;48.660;10.164;2023-05-14T12:45:04;95297.91;;;17.47;57.48
73674;BME280;61975;48.660;10.164;2023-05-14T12:47:32;95299.84;;;17.50;57.57
73674;BME280;61975;48.660;10.164;2023-05-14T12:49:57;95303.16;;;17.25;58.09